Time;durP1;ratioP1;P1;durP2;ratioP2;P2;SDS_P1;SDS_P2;PMS_P1;PMS_P2;Temp;Humidity;BMP_temperature;BMP_pressure;BME280_temperature;BME280_humidity;BME280_pressure;Samples;Min_cycle;Max_cycle;Signal;HPM_P1;HPM_P2
2022/07/06 00:04:09;;;;;;;;;;;;;;;-149.78;100.00;50119.41;6120206;23;19920;31
2022/07/06 00:06:35;;;;;;;;;;;;;;;-149.78;100.00;50099.88;5644945;23;19935;-69
2022/07/06 00:09:00;;;;;;;;;;;;;;;-149.78;100.00;50138.97;4981294;28;19930;-70
2022/07/06 00:11:26;;;;;;;;;;;;;;;-149.78;100.00;50138.97;4984104;28;19930;-69
2022/07/06 00:13:51;;;;;;;;;;;;;;;-149.78;100.00;50095.94;4968504;28;19933;-69
2022/07/06 00:16:17;;;;;;;;;;;;;;;-149.78;100.00;50103.78;4968824;28;19980;-70
2022/07/06 00:18:42;;;;;;;;;;;;;;;-149.78;100.00;50166.34;4978849;28;19925;-69
2022/07/06 00:21:08;;;;;;;;;;;;;;;-149.78;100.00;50107.69;4981183;28;20000;-69
2022/07/06 00:23:33;;;;;;;;;;;;;;;-149.78;100.00;50150.72;4986016;28;19930;-69
2022/07/06 00:25:59;;;;;;;;;;;;;;;-149.78;100.00;50133.09;4959111;28;19961;-69
2022/07/06 00:28:24;;;;;;;;;;;;;;;-149.78;100.00;50119.41;4982783;28;20024;-69
2022/07/06 00:30:50;;;;;;;;;;;;;;;-149.78;100.00;50152.66;4984589;28;20371;-69
2022/07/06 00:33:15;;;;;;;;;;;;;;;-149.78;100.00;50127.25;4971787;28;19929;-69
2022/07/06 00:35:40;;;;;;;;;;;;;;;-149.78;100.00;50150.72;4988105;28;19921;-69
2022/07/06 00:38:06;;;;;;;;;;;;;;;-149.78;100.00;50115.50;4970357;28;20584;-69
2022/07/06 00:40:31;;;;;;;;;;;;;;;-149.78;100.00;50113.56;4986286;28;19922;-70
2022/07/06 00:42:57;;;;;;;;;;;;;;;-149.78;100.00;50162.44;4981599;28;20312;-69
2022/07/06 00:45:22;;;;;;;;;;;;;;;-149.78;100.00;50135.06;4984229;28;20017;-69
2022/07/06 00:47:48;;;;;;;;;;;;;;;-149.78;100.00;50150.72;4985323;28;19934;-70
2022/07/06 00:50:14;;;;;;;;;;;;;;;-149.78;100.00;50138.97;4986225;28;20035;-69
2022/07/06 00:52:41;;;;;;;;;;;;;;;-149.78;100.00;50138.97;4983105;28;19926;-70
2022/07/06 00:55:09;;;;;;;;;;;;;;;-149.78;100.00;50146.81;4985696;28;20008;-69
2022/07/06 00:57:35;;;;;;;;;;;;;;;-149.78;100.00;50135.06;4980054;28;19917;-69
2022/07/06 01:00:03;;;;;;;;;;;;;;;-149.78;100.00;50138.97;4985102;28;19921;-69
2022/07/06 01:02:32;;;;;;;;;;;;;;;-149.78;100.00;50131.16;4984624;28;19926;-70
2022/07/06 01:04:57;;;;;;;;;;;;;;;-149.78;100.00;50185.91;4982073;28;20269;-69
2022/07/06 01:07:24;;;;;;;;;;;;;;;-149.78;100.00;50189.81;4962924;28;19980;-69
2022/07/06 01:09:49;;;;;;;;;;;;;;;-149.78;100.00;50111.59;4977088;28;19926;-70
2022/07/06 01:12:15;;;;;;;;;;;;;;;-149.78;100.00;50133.09;4962030;28;19921;-69
2022/07/06 01:14:41;;;;;;;;;;;;;;;-149.78;100.00;50115.50;4983557;28;19932;-69
2022/07/06 01:17:07;;;;;;;;;;;;;;;-149.78;100.00;50135.06;4983301;28;20002;-69
2022/07/06 01:19:32;;;;;;;;;;;;;;;-149.78;100.00;50123.34;4984913;28;19925;-69
2022/07/06 01:21:57;;;;;;;;;;;;;;;-149.78;100.00;50170.25;4982419;28;19929;-70
2022/07/06 01:24:23;;;;;;;;;;;;;;;-149.78;100.00;50178.09;4985568;28;19969;-69
2022/07/06 01:26:48;;;;;;;;;;;;;;;-149.78;100.00;50135.06;4986122;28;19934;-69
2022/07/06 01:29:14;;;;;;;;;;;;;;;-149.78;100.00;50101.81;4968340;28;19926;-69
2022/07/06 01:31:47;;;;;;;;;;;;;;;-149.78;100.00;50090.09;4985205;28;19932;-69
2022/07/06 01:34:13;;;;;;;;;;;;;;;-149.78;100.00;50154.63;4985896;28;19924;-69
2022/07/06 01:36:38;;;;;;;;;;;;;;;-149.78;100.00;50129.19;4985555;28;19930;-69
2022/07/06 01:39:04;;;;;;;;;;;;;;;-149.78;100.00;50123.34;4981325;28;19977;-69
2022/07/06 01:41:29;;;;;;;;;;;;;;;-149.78;100.00;50158.53;4975389;28;19941;-69
2022/07/06 01:43:54;;;;;;;;;;;;;;;-149.78;100.00;50154.63;4981387;28;20025;-69
2022/07/06 01:46:20;;;;;;;;;;;;;;;-149.78;100.00;50117.47;4982206;28;19930;-69
2022/07/06 01:48:46;;;;;;;;;;;;;;;-149.78;100.00;50127.25;4973420;28;19933;-70
2022/07/06 01:51:11;;;;;;;;;;;;;;;-149.78;100.00;50119.41;4983994;28;19918;-70
2022/07/06 01:53:37;;;;;;;;;;;;;;;-149.78;100.00;50172.22;4970147;28;20195;-69
2022/07/06 01:56:02;;;;;;;;;;;;;;;-149.78;100.00;50111.59;4978545;28;20188;-69
2022/07/06 01:58:28;;;;;;;;;;;;;;;-149.78;100.00;50142.88;4983445;28;20372;-70
2022/07/06 02:00:53;;;;;;;;;;;;;;;-149.78;100.00;50150.72;4985257;28;19972;-69
2022/07/06 02:03:19;;;;;;;;;;;;;;;-149.78;100.00;50135.06;4983784;28;20383;-69
2022/07/06 02:05:44;;;;;;;;;;;;;;;-149.78;100.00;50127.25;4989091;28;20372;-69
2022/07/06 02:08:09;;;;;;;;;;;;;;;-149.78;100.00;50138.97;4988372;28;19930;-69
2022/07/06 02:10:35;;;;;;;;;;;;;;;-149.78;100.00;50138.97;4988950;28;20376;-69
2022/07/06 02:13:00;;;;;;;;;;;;;;;-149.78;100.00;50137.03;4983685;28;19926;-69
2022/07/06 02:15:26;;;;;;;;;;;;;;;-149.78;100.00;50152.66;4986688;28;20024;-69
2022/07/06 02:17:52;;;;;;;;;;;;;;;-149.78;100.00;50146.81;4989804;28;20009;-70
2022/07/06 02:20:17;;;;;;;;;;;;;;;-149.78;100.00;50154.63;4985673;28;19949;-70
2022/07/06 02:22:42;;;;;;;;;;;;;;;-149.78;100.00;50174.19;4986845;28;19972;-69
2022/07/06 02:25:08;;;;;;;;;;;;;;;-149.78;100.00;50127.25;4989251;28;19940;-70
2022/07/06 02:27:33;;;;;;;;;;;;;;;-149.78;100.00;50166.34;4988458;28;19972;-69
2022/07/06 02:29:59;;;;;;;;;;;;;;;-149.78;100.00;50125.28;4990663;28;19925;-69
2022/07/06 02:32:25;;;;;;;;;;;;;;;-149.78;100.00;50158.53;4965786;28;19918;-69
2022/07/06 02:34:50;;;;;;;;;;;;;;;-149.78;100.00;50131.16;4986493;28;19918;-69
2022/07/06 02:37:16;;;;;;;;;;;;;;;-149.78;100.00;50138.97;4989127;28;19976;-69
2022/07/06 02:39:42;;;;;;;;;;;;;;;-149.78;100.00;50137.03;4988649;28;19930;-69
2022/07/06 02:42:07;;;;;;;;;;;;;;;-149.78;100.00;50148.75;4981500;28;20413;-70
2022/07/06 02:44:33;;;;;;;;;;;;;;;-149.78;100.00;50133.09;4980450;28;19982;-69
2022/07/06 02:46:58;;;;;;;;;;;;;;;-149.78;100.00;50154.63;4986372;28;19989;-70
2022/07/06 02:49:23;;;;;;;;;;;;;;;-149.78;100.00;50109.66;4987844;28;19925;-69
2022/07/06 02:51:49;;;;;;;;;;;;;;;-149.78;100.00;50152.66;4986606;28;20014;-69
2022/07/06 02:54:14;;;;;;;;;;;;;;;-149.78;100.00;50150.72;4984734;28;19926;-69
2022/07/06 02:56:39;;;;;;;;;;;;;;;-149.78;100.00;50131.16;4972915;28;20004;-69
2022/07/06 02:59:05;;;;;;;;;;;;;;;-149.78;100.00;50148.75;4981498;28;20370;-69
2022/07/06 03:01:31;;;;;;;;;;;;;;;-149.78;100.00;50131.16;4981276;28;19922;-69
2022/07/06 03:03:56;;;;;;;;;;;;;;;-149.78;100.00;50131.16;4981247;28;19926;-69
2022/07/06 03:06:22;;;;;;;;;;;;;;;-149.78;100.00;50099.88;4986394;28;19976;-69
2022/07/06 03:08:47;;;;;;;;;;;;;;;-149.78;100.00;50140.94;4980608;28;19973;-69
2022/07/06 03:11:13;;;;;;;;;;;;;;;-149.78;100.00;50138.97;4988730;28;19926;-70
2022/07/06 03:13:39;;;;;;;;;;;;;;;-149.78;100.00;50123.34;4985836;28;20392;-69
2022/07/06 03:16:04;;;;;;;;;;;;;;;-149.78;100.00;50105.72;4984170;28;19922;-69
2022/07/06 03:18:30;;;;;;;;;;;;;;;-149.78;100.00;50162.44;4988061;28;20361;-69
2022/07/06 03:20:55;;;;;;;;;;;;;;;-149.78;100.00;50137.03;4988435;28;19999;-69
2022/07/06 03:23:21;;;;;;;;;;;;;;;-149.78;100.00;50166.34;4987921;28;19922;-71
2022/07/06 03:25:46;;;;;;;;;;;;;;;-149.78;100.00;50107.69;4988174;28;19945;-69
2022/07/06 03:28:11;;;;;;;;;;;;;;;-149.78;100.00;50135.06;4988418;28;20024;-69
2022/07/06 03:30:37;;;;;;;;;;;;;;;-149.78;100.00;50135.06;4987499;28;19968;-69
2022/07/06 03:33:02;;;;;;;;;;;;;;;-149.78;100.00;50154.63;4978600;28;19922;-69
2022/07/06 03:35:28;;;;;;;;;;;;;;;-149.78;100.00;50162.44;4987401;28;19923;-70
2022/07/06 03:37:53;;;;;;;;;;;;;;;-149.78;100.00;50144.84;4988341;28;19921;-69
2022/07/06 03:40:19;;;;;;;;;;;;;;;-149.78;100.00;50115.50;4988124;28;20024;-69
2022/07/06 03:42:44;;;;;;;;;;;;;;;-149.78;100.00;50150.72;4987617;28;20258;-69
2022/07/06 03:45:10;;;;;;;;;;;;;;;-149.78;100.00;50154.63;4988237;28;19968;-69
2022/07/06 03:47:35;;;;;;;;;;;;;;;-149.78;100.00;50148.75;4986340;28;20399;-69
2022/07/06 03:50:00;;;;;;;;;;;;;;;-149.78;100.00;50158.53;4986449;28;19922;-69
2022/07/06 03:52:26;;;;;;;;;;;;;;;-149.78;100.00;50131.16;4986374;28;20304;-69
2022/07/06 03:54:51;;;;;;;;;;;;;;;-149.78;100.00;50148.75;4981531;28;19929;-71
2022/07/06 03:57:21;;;;;;;;;;;;;;;-149.78;100.00;50178.09;4987863;28;19929;-71
2022/07/06 03:59:48;;;;;;;;;;;;;;;-149.78;100.00;50148.75;4984678;28;19971;-71
2022/07/06 04:02:14;;;;;;;;;;;;;;;-149.78;100.00;50146.81;4987499;28;20311;-71
2022/07/06 04:04:42;;;;;;;;;;;;;;;-149.78;100.00;50154.63;4987168;28;19952;-71
2022/07/06 04:07:08;;;;;;;;;;;;;;;-149.78;100.00;50135.06;4987265;28;19996;-71
2022/07/06 04:09:35;;;;;;;;;;;;;;;-149.78;100.00;50174.19;4987424;28;19928;-71
2022/07/06 04:12:09;;;;;;;;;;;;;;;-149.78;100.00;50138.97;4970961;28;19930;-70
2022/07/06 04:14:34;;;;;;;;;;;;;;;-149.78;100.00;50146.81;4986055;28;20372;-70
2022/07/06 04:17:51;;;;;;;;;;;;;;;-149.78;100.00;50121.38;4987230;28;20016;-70
2022/07/06 04:19:45;;;;;;;;;;;;;;;-149.78;100.00;50135.06;4987181;28;19928;-71
2022/07/06 04:22:10;;;;;;;;;;;;;;;-149.78;100.00;50189.81;4986016;28;20292;-71
2022/07/06 04:24:36;;;;;;;;;;;;;;;-149.78;100.00;50150.72;4987610;28;19966;-70
2022/07/06 04:27:01;;;;;;;;;;;;;;;-149.78;100.00;50146.81;4985879;28;19925;-70
2022/07/06 04:29:27;;;;;;;;;;;;;;;-149.78;100.00;50135.06;4986931;28;19929;-70
2022/07/06 04:31:53;;;;;;;;;;;;;;;-149.78;100.00;50174.19;4987240;28;19930;-70
2022/07/06 04:34:18;;;;;;;;;;;;;;;-149.78;100.00;50144.84;4985964;28;19933;-70
2022/07/06 04:36:43;;;;;;;;;;;;;;;-149.78;100.00;50127.25;4980077;28;20296;-70
2022/07/06 04:39:09;;;;;;;;;;;;;;;-149.78;100.00;50140.94;4986536;28;19930;-70
2022/07/06 04:41:34;;;;;;;;;;;;;;;-149.78;100.00;50150.72;4987178;28;19968;-71
2022/07/06 04:44:00;;;;;;;;;;;;;;;-149.78;100.00;50150.72;4968379;28;20006;-70
2022/07/06 04:46:25;;;;;;;;;;;;;;;-149.78;100.00;50148.75;4986577;28;19999;-70
2022/07/06 04:48:51;;;;;;;;;;;;;;;-149.78;100.00;50154.63;4968909;28;19922;-70
2022/07/06 04:51:17;;;;;;;;;;;;;;;-149.78;100.00;50119.41;4986415;28;19922;-70
2022/07/06 04:53:42;;;;;;;;;;;;;;;-149.78;100.00;50119.41;4984177;28;19980;-71
2022/07/06 04:56:08;;;;;;;;;;;;;;;-149.78;100.00;50154.63;4987532;28;19929;-70
2022/07/06 04:58:34;;;;;;;;;;;;;;;-149.78;100.00;50182.00;4985759;28;20008;-70
2022/07/06 05:00:59;;;;;;;;;;;;;;;-149.78;100.00;50174.19;4986216;28;19922;-70
2022/07/06 05:03:25;;;;;;;;;;;;;;;-149.78;100.00;50164.41;4986716;28;19960;-70
2022/07/06 05:05:50;;;;;;;;;;;;;;;-149.78;100.00;50150.72;4986067;28;19922;-70
2022/07/06 05:08:16;;;;;;;;;;;;;;;-149.78;100.00;50154.63;4985729;28;19925;-70
2022/07/06 05:10:41;;;;;;;;;;;;;;;-149.78;100.00;50142.88;4986264;28;20008;-70
2022/07/06 05:13:07;;;;;;;;;;;;;;;-149.78;100.00;50154.63;4986959;28;20353;-70
2022/07/06 05:15:33;;;;;;;;;;;;;;;-149.78;100.00;50133.09;4984375;28;19929;-70
2022/07/06 05:17:59;;;;;;;;;;;;;;;-149.78;100.00;50135.06;4987065;28;19983;-70
2022/07/06 05:20:24;;;;;;;;;;;;;;;-149.78;100.00;50127.25;4985708;28;20385;-71
2022/07/06 05:22:50;;;;;;;;;;;;;;;-149.78;100.00;50135.06;4991352;28;19968;-71
2022/07/06 05:25:16;;;;;;;;;;;;;;;-149.78;100.00;50138.97;4988242;28;19929;-70
2022/07/06 05:27:41;;;;;;;;;;;;;;;-149.78;100.00;50125.28;4968414;28;19926;-70
2022/07/06 05:30:07;;;;;;;;;;;;;;;-149.78;100.00;50148.75;4985343;28;19975;-70
2022/07/06 05:32:32;;;;;;;;;;;;;;;-149.78;100.00;50135.06;4985792;28;20344;-70
2022/07/06 05:34:57;;;;;;;;;;;;;;;-149.78;100.00;50166.34;4986182;28;19922;-70
2022/07/06 05:37:23;;;;;;;;;;;;;;;-149.78;100.00;50150.72;4985737;28;19926;-70
2022/07/06 05:39:50;;;;;;;;;;;;;;;-149.78;100.00;50166.34;4984103;28;19945;-70
2022/07/06 05:42:15;;;;;;;;;;;;;;;-149.78;100.00;50162.44;4983956;28;20319;-70
2022/07/06 05:44:41;;;;;;;;;;;;;;;-149.78;100.00;50158.53;4983932;28;19929;-70
2022/07/06 05:52:36;;;;;;;;;;;;;;;-149.78;100.00;50158.53;4975698;28;19930;-71
2022/07/06 05:55:03;;;;;;;;;;;;;;;-149.78;100.00;50154.63;4985777;28;20004;-70
2022/07/06 05:57:28;;;;;;;;;;;;;;;-149.78;100.00;50138.97;4984233;28;20354;-70
2022/07/06 05:59:53;;;;;;;;;;;;;;;-149.78;100.00;50166.34;4968749;28;19940;-71
2022/07/06 06:02:19;;;;;;;;;;;;;;;-149.78;100.00;50129.19;4985695;28;20376;-71
2022/07/06 06:04:44;;;;;;;;;;;;;;;-149.78;100.00;50152.66;4986303;28;19925;-71
2022/07/06 06:07:10;;;;;;;;;;;;;;;-149.78;100.00;50150.72;4986166;28;20301;-72
2022/07/06 06:09:35;;;;;;;;;;;;;;;-149.78;100.00;50146.81;4987510;28;19930;-70
2022/07/06 06:12:01;;;;;;;;;;;;;;;-149.78;100.00;50174.19;4999415;28;19922;-70
2022/07/06 06:14:26;;;;;;;;;;;;;;;-149.78;100.00;50111.59;5004568;28;20618;-71
2022/07/06 06:16:51;;;;;;;;;;;;;;;-149.78;100.00;50107.69;5003663;28;19964;-72
2022/07/06 06:19:17;;;;;;;;;;;;;;;-149.78;100.00;50146.81;4982260;28;19961;-71
2022/07/06 06:21:42;;;;;;;;;;;;;;;-149.78;100.00;50099.88;4991801;28;19921;-72
2022/07/06 06:24:07;;;;;;;;;;;;;;;-149.78;100.00;50115.50;4993544;28;19965;-71
2022/07/06 06:26:34;;;;;;;;;;;;;;;-149.78;100.00;50131.16;5003943;28;19983;-72
2022/07/06 06:28:59;;;;;;;;;;;;;;;-149.78;100.00;50146.81;4989477;28;19965;-71
2022/07/06 06:31:24;;;;;;;;;;;;;;;-149.78;100.00;50105.72;4992622;28;19917;-71
2022/07/06 06:33:50;;;;;;;;;;;;;;;-149.78;100.00;50131.16;5001884;28;20372;-70
2022/07/06 06:36:16;;;;;;;;;;;;;;;-149.78;100.00;50158.53;5007627;28;19969;-70
2022/07/06 06:38:42;;;;;;;;;;;;;;;-149.78;100.00;50119.41;5011351;28;19963;-70
2022/07/06 06:41:07;;;;;;;;;;;;;;;-149.78;100.00;50123.34;4993495;28;19925;-71
2022/07/06 06:43:33;;;;;;;;;;;;;;;-149.78;100.00;50158.53;5002330;28;19925;-70
2022/07/06 06:45:59;;;;;;;;;;;;;;;-149.78;100.00;50119.41;5006467;28;21594;-70
2022/07/06 06:48:24;;;;;;;;;;;;;;;-149.78;100.00;50076.41;4992256;28;19973;-71
2022/07/06 06:50:49;;;;;;;;;;;;;;;-149.78;100.00;50138.97;4993430;28;19921;-70
2022/07/06 06:53:15;;;;;;;;;;;;;;;-149.78;100.00;50154.63;4984601;28;19944;-71
2022/07/06 06:55:41;;;;;;;;;;;;;;;-149.78;100.00;50166.34;4983997;28;19977;-71
2022/07/06 06:58:06;;;;;;;;;;;;;;;-149.78;100.00;50178.09;4986973;28;20367;-70
2022/07/06 07:00:32;;;;;;;;;;;;;;;-149.78;100.00;50160.50;4984664;28;20385;-72
2022/07/06 07:02:57;;;;;;;;;;;;;;;-149.78;100.00;50146.81;4993390;28;20407;-71
2022/07/06 07:05:23;;;;;;;;;;;;;;;-149.78;100.00;50146.81;5004522;28;19932;-70
2022/07/06 07:07:48;;;;;;;;;;;;;;;-149.78;100.00;50115.50;4993922;28;19969;-70
2022/07/06 07:10:14;;;;;;;;;;;;;;;-149.78;100.00;50166.34;4997723;28;20276;-70
2022/07/06 07:12:44;;;;;;;;;;;;;;;-149.78;100.00;50158.53;4987112;28;19929;-71
2022/07/06 07:15:09;;;;;;;;;;;;;;;-149.78;100.00;50158.53;4983243;28;19918;-71
2022/07/06 07:17:35;;;;;;;;;;;;;;;-149.78;100.00;50140.94;4987228;28;19922;-72
2022/07/06 07:20:00;;;;;;;;;;;;;;;-149.78;100.00;50131.16;4980982;28;19934;-71
2022/07/06 07:22:27;;;;;;;;;;;;;;;-149.78;100.00;50138.97;4993867;28;19961;-71
2022/07/06 07:24:52;;;;;;;;;;;;;;;-149.78;100.00;50123.34;4989835;28;19922;-71
2022/07/06 07:27:18;;;;;;;;;;;;;;;-149.78;100.00;50137.03;4987028;28;20380;-71
2022/07/06 07:29:44;;;;;;;;;;;;;;;-149.78;100.00;50107.69;4980513;28;19977;-71
2022/07/06 07:32:09;;;;;;;;;;;;;;;-149.78;100.00;50099.88;4984689;28;20386;-71
2022/07/06 07:34:34;;;;;;;;;;;;;;;-149.78;100.00;50150.72;4991174;28;19926;-71
2022/07/06 07:37:00;;;;;;;;;;;;;;;-149.78;100.00;50154.63;5001285;28;20420;-71
2022/07/06 07:39:25;;;;;;;;;;;;;;;-149.78;100.00;50142.88;4984568;28;20033;-71
2022/07/06 07:41:51;;;;;;;;;;;;;;;-149.78;100.00;50144.84;5007997;28;19922;-71
2022/07/06 07:44:17;;;;;;;;;;;;;;;-149.78;100.00;50162.44;4994118;28;19968;-71
2022/07/06 07:46:43;;;;;;;;;;;;;;;-149.78;100.00;50119.41;4993016;28;19929;-71
2022/07/06 07:49:09;;;;;;;;;;;;;;;-149.78;100.00;50178.09;5006328;28;19921;-71
2022/07/06 07:51:34;;;;;;;;;;;;;;;-149.78;100.00;50135.06;4994159;28;20306;-71
2022/07/06 07:54:00;;;;;;;;;;;;;;;-149.78;100.00;50127.25;4995187;28;19987;-71
2022/07/06 07:56:25;;;;;;;;;;;;;;;-149.78;100.00;50138.97;5001214;28;19922;-71
2022/07/06 07:58:51;;;;;;;;;;;;;;;-149.78;100.00;50135.06;5014940;28;19925;-71
2022/07/06 08:01:17;;;;;;;;;;;;;;;-149.78;100.00;50135.06;5013050;28;20299;-71
2022/07/06 08:03:42;;;;;;;;;;;;;;;-149.78;100.00;50152.66;5007331;28;19929;-71
2022/07/06 08:06:07;;;;;;;;;;;;;;;-149.78;100.00;50123.34;4993904;28;19929;-71
2022/07/06 08:08:33;;;;;;;;;;;;;;;-149.78;100.00;50125.28;4983171;28;19932;-71
2022/07/06 08:10:58;;;;;;;;;;;;;;;-149.78;100.00;50072.50;4978043;28;19922;-71
2022/07/06 08:13:24;;;;;;;;;;;;;;;-149.78;100.00;50119.41;4978316;28;20012;-71
2022/07/06 08:15:49;;;;;;;;;;;;;;;-149.78;100.00;50127.25;5000384;28;19917;-71
2022/07/06 08:18:14;;;;;;;;;;;;;;;-149.78;100.00;50101.81;5001174;28;20297;-71
2022/07/06 08:20:40;;;;;;;;;;;;;;;-149.78;100.00;50076.41;4992017;28;19927;-71
2022/07/06 08:23:05;;;;;;;;;;;;;;;-149.78;100.00;50086.19;5010698;28;19975;-71
2022/07/06 08:25:31;;;;;;;;;;;;;;;-149.78;100.00;50099.88;5006768;28;20445;-71
2022/07/06 08:27:57;;;;;;;;;;;;;;;-149.78;100.00;50115.50;4994538;28;20341;-71
2022/07/06 08:30:22;;;;;;;;;;;;;;;-149.78;100.00;50076.41;4991022;28;19922;-71
2022/07/06 08:32:48;;;;;;;;;;;;;;;-149.78;100.00;50111.59;5005816;28;19933;-71
2022/07/06 08:35:13;;;;;;;;;;;;;;;-149.78;100.00;50107.69;4994985;28;19953;-71
2022/07/06 08:37:39;;;;;;;;;;;;;;;-149.78;100.00;50092.03;4977205;28;20014;-71
2022/07/06 08:40:05;;;;;;;;;;;;;;;-149.78;100.00;50078.34;4995805;28;20365;-71
2022/07/06 08:42:32;;;;;;;;;;;;;;;-149.78;100.00;50076.41;4979683;28;20335;-71
2022/07/06 08:45:02;;;;;;;;;;;;;;;-149.78;100.00;50060.75;4997884;28;20046;-71
2022/07/06 08:47:28;;;;;;;;;;;;;;;-149.78;100.00;50004.03;5001699;28;20380;-71
2022/07/06 08:49:54;;;;;;;;;;;;;;;-149.78;100.00;50041.19;4992770;28;19936;-69
2022/07/06 08:52:20;;;;;;;;;;;;;;;-149.78;100.00;50017.72;4994778;28;19918;-69
2022/07/06 08:54:47;;;;;;;;;;;;;;;-149.78;100.00;50033.38;5007085;28;19918;-70
2022/07/06 08:57:12;;;;;;;;;;;;;;;-149.78;100.00;50041.19;4999699;28;20045;-71
2022/07/06 08:59:38;;;;;;;;;;;;;;;-149.78;100.00;50019.69;4997060;28;20001;-71
2022/07/06 09:02:04;;;;;;;;;;;;;;;-149.78;100.00;50023.59;4986032;28;19932;-71
2022/07/06 09:04:30;;;;;;;;;;;;;;;-149.78;100.00;50017.72;5002911;28;19925;-71
2022/07/06 09:06:56;;;;;;;;;;;;;;;-149.78;100.00;50060.75;4986633;28;19922;-71
2022/07/06 09:09:23;;;;;;;;;;;;;;;-149.78;100.00;50041.19;4984772;28;20270;-71
2022/07/06 09:11:49;;;;;;;;;;;;;;;-149.78;100.00;50092.03;4993696;28;19945;-71
2022/07/06 09:14:14;;;;;;;;;;;;;;;-149.78;100.00;50039.25;5006150;28;19921;-71
2022/07/06 09:16:39;;;;;;;;;;;;;;;-149.78;100.00;50043.16;5004486;28;19922;-71
2022/07/06 09:19:10;;;;;;;;;;;;;;;-149.78;100.00;50021.63;4992513;28;19928;-71
2022/07/06 09:21:36;;;;;;;;;;;;;;;-149.78;100.00;50072.50;4993081;28;19921;-71
2022/07/06 09:24:05;;;;;;;;;;;;;;;-149.78;100.00;50037.28;4993248;28;19932;-71
2022/07/06 09:26:30;;;;;;;;;;;;;;;-149.78;100.00;50068.56;4992952;28;20340;-71
2022/07/06 09:28:56;;;;;;;;;;;;;;;-149.78;100.00;50076.41;5011019;28;19968;-71
2022/07/06 09:31:22;;;;;;;;;;;;;;;-149.78;100.00;50092.03;4995625;28;19930;-70
2022/07/06 09:33:57;;;;;;;;;;;;;;;-149.78;100.00;50092.03;4993932;28;19918;-71
2022/07/06 09:36:38;;;;;;;;;;;;;;;-149.78;100.00;50107.69;5006105;28;19925;-71
2022/07/06 09:39:14;;;;;;;;;;;;;;;-149.78;100.00;50084.22;5008347;28;19921;-71
2022/07/06 09:41:40;;;;;;;;;;;;;;;-149.78;100.00;50099.88;5008357;28;19972;-71
2022/07/06 09:44:06;;;;;;;;;;;;;;;-149.78;100.00;50092.03;4996445;28;19921;-71
2022/07/06 09:46:37;;;;;;;;;;;;;;;-149.78;100.00;50103.78;5005255;28;20026;-70
2022/07/06 09:49:02;;;;;;;;;;;;;;;-149.78;100.00;50056.84;4993658;28;19929;-71
2022/07/06 09:51:30;;;;;;;;;;;;;;;-149.78;100.00;50049.03;4994288;28;19925;-71
2022/07/06 09:53:57;;;;;;;;;;;;;;;-149.78;100.00;50023.59;4987984;28;19918;-70
2022/07/06 09:56:37;;;;;;;;;;;;;;;-149.78;100.00;50058.78;4994761;28;19917;-71
2022/07/06 09:59:05;;;;;;;;;;;;;;;-149.78;100.00;50033.38;4994614;28;19921;-70
2022/07/06 10:01:31;;;;;;;;;;;;;;;-149.78;100.00;50041.19;4986694;28;20393;-70
2022/07/06 10:03:56;;;;;;;;;;;;;;;-149.78;100.00;50084.22;4987623;28;19918;-70
2022/07/06 10:06:24;;;;;;;;;;;;;;;-149.78;100.00;50045.09;4993026;28;19921;-72
2022/07/06 10:08:50;;;;;;;;;;;;;;;-149.78;100.00;50025.56;4981027;28;19932;-70
2022/07/06 10:11:16;;;;;;;;;;;;;;;-149.78;100.00;50047.06;4993154;28;19922;-68
2022/07/06 10:13:43;;;;;;;;;;;;;;;-149.78;100.00;50056.84;5002315;28;19929;-69
2022/07/06 10:16:08;;;;;;;;;;;;;;;-149.78;100.00;50060.75;4996698;28;19918;-69
2022/07/06 10:18:34;;;;;;;;;;;;;;;-149.78;100.00;50092.03;4994136;28;19937;-68
2022/07/06 10:21:00;;;;;;;;;;;;;;;-149.78;100.00;50049.03;4987571;28;19922;-68
2022/07/06 10:23:26;;;;;;;;;;;;;;;-149.78;100.00;50068.56;4970987;28;20039;-69
2022/07/06 10:25:52;;;;;;;;;;;;;;;-149.78;100.00;50039.25;4997239;28;20377;-69
2022/07/06 10:28:19;;;;;;;;;;;;;;;-149.78;100.00;50017.72;5008257;28;20024;-68
2022/07/06 10:30:45;;;;;;;;;;;;;;;-149.78;100.00;50092.03;4979786;28;19940;-69
2022/07/06 10:33:11;;;;;;;;;;;;;;;-149.78;100.00;50045.09;5006141;28;20417;-68
2022/07/06 10:35:40;;;;;;;;;;;;;;;-149.78;100.00;50045.09;4984679;28;19933;-69
2022/07/06 10:38:09;;;;;;;;;;;;;;;-149.78;100.00;50033.38;4991810;28;19925;-69
2022/07/06 10:43:19;;;;;;;;;;;;;;;-149.78;100.00;50043.16;4988514;28;19948;-68
2022/07/06 10:45:44;;;;;;;;;;;;;;;-149.78;100.00;50074.44;4991219;28;19945;-69
2022/07/06 10:48:10;;;;;;;;;;;;;;;-149.78;100.00;50041.19;4992774;28;20033;-69
2022/07/06 10:50:36;;;;;;;;;;;;;;;-149.78;100.00;50076.41;4995381;28;19922;-69
2022/07/06 10:53:09;;;;;;;;;;;;;;;-149.78;100.00;50060.75;4996700;28;20448;-70
2022/07/06 10:55:36;;;;;;;;;;;;;;;-149.78;100.00;50041.19;5001438;28;19925;-70
2022/07/06 10:58:02;;;;;;;;;;;;;;;-149.78;90.93;50037.28;4990328;28;19918;-70
2022/07/06 11:00:46;;;;;;;;;;;;;;;-149.78;93.09;50033.38;4992229;28;19926;-70
2022/07/06 11:03:30;;;;;;;;;;;;;;;-149.78;86.72;50047.06;5005114;28;19925;-70
2022/07/06 11:06:04;;;;;;;;;;;;;;;-149.78;90.87;50054.88;4992003;28;19918;-70
2022/07/06 11:08:56;;;;;;;;;;;;;;;-149.78;89.51;50054.88;4991695;28;19976;-70
2022/07/06 11:11:31;;;;;;;;;;;;;;;-149.78;100.00;50054.88;4979496;28;20267;-70
2022/07/06 11:13:57;;;;;;;;;;;;;;;-149.78;100.00;50025.56;5002561;28;20463;-70
2022/07/06 11:16:24;;;;;;;;;;;;;;;-149.78;100.00;50041.19;5009026;28;20021;-70
2022/07/06 11:18:59;;;;;;;;;;;;;;;-149.78;100.00;50033.38;5005617;28;19918;-70
2022/07/06 11:21:32;;;;;;;;;;;;;;;-149.78;100.00;50070.53;5013474;28;19918;-70
2022/07/06 11:23:58;;;;;;;;;;;;;;;-149.78;100.00;50045.09;4996208;28;19921;-70
2022/07/06 11:26:23;;;;;;;;;;;;;;;-149.78;100.00;50076.41;4982809;28;19928;-70
2022/07/06 11:28:51;;;;;;;;;;;;;;;-149.78;100.00;50058.78;4995639;28;19926;-69
2022/07/06 11:31:16;;;;;;;;;;;;;;;-149.78;100.00;50060.75;4983551;28;19918;-69
2022/07/06 11:33:44;;;;;;;;;;;;;;;-149.78;100.00;50072.50;4996495;28;19917;-70
2022/07/06 11:36:11;;;;;;;;;;;;;;;-149.78;100.00;50041.19;4996025;28;19918;-70
2022/07/06 11:38:37;;;;;;;;;;;;;;;-149.78;97.97;50056.84;4995539;28;19922;-70
2022/07/06 11:41:02;;;;;;;;;;;;;;;-149.78;86.99;49998.19;4996440;28;19963;-70
2022/07/06 11:43:28;;;;;;;;;;;;;;;-149.78;77.79;50033.38;4995692;28;19977;-71
2022/07/06 11:45:53;;;;;;;;;;;;;;;-149.78;80.58;50009.91;4982187;28;19926;-70
2022/07/06 11:48:18;;;;;;;;;;;;;;;-149.78;78.37;50033.38;4984177;28;19961;-70
2022/07/06 11:50:56;;;;;;;;;;;;;;;-149.78;73.11;50041.19;4995823;28;19928;-70
2022/07/06 11:53:21;;;;;;;;;;;;;;;-149.78;70.42;50009.91;4990927;28;19917;-70
2022/07/06 11:55:47;;;;;;;;;;;;;;;-149.78;73.42;50002.09;4983123;28;19929;-71
2022/07/06 11:58:13;;;;;;;;;;;;;;;-149.78;69.83;49998.19;4994435;28;19926;-70
2022/07/06 12:00:39;;;;;;;;;;;;;;;-149.78;73.73;50013.81;5013220;28;19922;-70
2022/07/06 12:03:04;;;;;;;;;;;;;;;-149.78;73.41;50023.59;5007380;28;19921;-70
2022/07/06 12:05:31;;;;;;;;;;;;;;;-149.78;68.98;50002.09;5004513;28;19922;-70
2022/07/06 12:08:05;;;;;;;;;;;;;;;-149.78;71.48;50037.28;4995859;28;19926;-70
2022/07/06 12:10:33;;;;;;;;;;;;;;;-149.78;76.22;50017.72;5011975;28;19974;-70
2022/07/06 12:13:02;;;;;;;;;;;;;;;-149.78;85.20;50068.56;5007437;28;19922;-70
2022/07/06 12:15:28;;;;;;;;;;;;;;;-149.78;88.98;50015.78;4996006;28;19922;-70
2022/07/06 12:17:53;;;;;;;;;;;;;;;-149.78;100.00;50021.63;4989076;28;19956;-70
2022/07/06 12:20:19;;;;;;;;;;;;;;;-149.78;95.77;50047.06;4992692;28;19928;-70
2022/07/06 12:22:45;;;;;;;;;;;;;;;-149.78;91.90;50033.38;4984711;28;19921;-70
2022/07/06 12:25:11;;;;;;;;;;;;;;;-149.78;90.50;50041.19;5000399;28;19930;-70